createdAt,value
2023-03-05T00:02:34.284Z,-3.39
2023-03-05T00:07:37.452Z,-3.42
2023-03-05T00:12:40.313Z,-3.44
2023-03-05T00:17:43.068Z,-3.46
2023-03-05T00:22:45.960Z,-3.46
2023-03-05T00:27:48.716Z,-3.47
2023-03-05T00:32:51.522Z,-3.48
2023-03-05T00:37:54.362Z,-3.49
2023-03-05T00:42:57.239Z,-3.51
2023-03-05T00:48:01.542Z,-3.52
2023-03-05T00:53:05.395Z,-3.54
2023-03-05T00:58:08.404Z,-3.58
2023-03-05T01:03:11.514Z,-3.61
2023-03-05T01:08:15.452Z,-3.63
2023-03-05T01:13:18.462Z,-3.66
2023-03-05T01:18:21.322Z,-3.70
2023-03-05T01:23:24.101Z,-3.74
2023-03-05T01:28:27.878Z,-3.78
2023-03-05T01:33:30.757Z,-3.83
2023-03-05T01:38:33.589Z,-3.86
2023-03-05T01:43:37.128Z,-3.90
2023-03-05T01:48:42.128Z,-3.93
2023-03-05T01:53:45.318Z,-3.96
2023-03-05T01:58:48.581Z,-3.98
2023-03-05T02:03:51.631Z,-4.03
2023-03-05T02:08:54.434Z,-4.05
2023-03-05T02:13:58.424Z,-4.06
2023-03-05T02:19:03.708Z,-4.07
2023-03-05T02:24:06.793Z,-4.05
2023-03-05T02:29:13.293Z,-4.00
2023-03-05T02:34:16.117Z,-3.96
2023-03-05T02:39:18.891Z,-3.95
2023-03-05T02:44:21.693Z,-3.97
2023-03-05T02:49:24.529Z,-4.01
2023-03-05T02:54:27.278Z,-4.05
2023-03-05T02:59:30.196Z,-4.09
2023-03-05T03:04:33.275Z,-4.13
2023-03-05T03:09:36.259Z,-4.17
2023-03-05T03:14:42.648Z,-4.20
2023-03-05T03:19:46.141Z,-4.22
2023-03-05T03:24:48.945Z,-4.19
2023-03-05T03:29:51.703Z,-4.09
2023-03-05T03:34:54.667Z,-3.89
2023-03-05T03:39:57.659Z,-3.67
2023-03-05T03:45:02.527Z,-3.47
2023-03-05T03:50:05.939Z,-3.32
2023-03-05T03:55:09.271Z,-3.21
2023-03-05T04:00:12.812Z,-3.15
2023-03-05T04:05:15.715Z,-3.14
2023-03-05T04:10:18.903Z,-3.17
2023-03-05T04:15:21.698Z,-3.23
2023-03-05T04:20:24.569Z,-3.29
2023-03-05T04:25:27.412Z,-3.32
2023-03-05T04:30:31.381Z,-3.34
2023-03-05T04:35:34.248Z,-3.39
2023-03-05T04:40:37.497Z,-3.45
2023-03-05T04:45:41.848Z,-3.54
2023-03-05T04:50:44.607Z,-3.63
2023-03-05T04:55:53.396Z,-3.74
2023-03-05T05:01:01.548Z,-3.83
2023-03-05T05:06:08.955Z,-3.93
2023-03-05T05:11:14.604Z,-3.96
2023-03-05T05:16:17.777Z,-3.95
2023-03-05T05:21:21.037Z,-3.95
2023-03-05T05:26:23.811Z,-3.97
2023-03-05T05:31:26.663Z,-4.01
2023-03-05T05:36:29.634Z,-4.05
2023-03-05T05:41:32.475Z,-4.08
2023-03-05T05:46:35.352Z,-4.04
2023-03-05T05:51:38.248Z,-3.88
2023-03-05T05:56:41.484Z,-3.66
2023-03-05T06:01:44.301Z,-3.49
2023-03-05T06:06:47.124Z,-3.38
2023-03-05T06:11:50.634Z,-3.36
2023-03-05T06:16:53.553Z,-3.34
2023-03-05T06:21:56.740Z,-3.18
2023-03-05T06:26:59.584Z,-3.03
2023-03-05T06:32:02.374Z,-2.87
2023-03-05T06:37:05.214Z,-2.71
2023-03-05T06:42:08.051Z,-2.54
2023-03-05T06:47:11.253Z,-2.41
2023-03-05T06:52:14.094Z,-2.27
2023-03-05T06:57:16.953Z,-2.14
2023-03-05T07:02:19.786Z,-1.66
2023-03-05T07:07:22.833Z,0.03
2023-03-05T07:12:25.736Z,0.77
2023-03-05T07:17:28.488Z,1.14
2023-03-05T07:22:31.941Z,0.89
2023-03-05T07:27:36.401Z,0.34
2023-03-05T07:32:39.328Z,-0.06
2023-03-05T07:37:42.144Z,-0.35
2023-03-05T07:42:48.582Z,-0.47
2023-03-05T07:47:52.628Z,-0.51
2023-03-05T07:52:55.625Z,-0.50
2023-03-05T07:57:58.442Z,-0.47
2023-03-05T08:03:01.332Z,-0.29
2023-03-05T08:08:04.698Z,0.91
2023-03-05T08:13:07.585Z,1.89
2023-03-05T08:18:10.417Z,2.20
2023-03-05T08:23:13.256Z,1.96
2023-03-05T08:28:19.786Z,2.25
2023-03-05T08:33:22.595Z,2.37
2023-03-05T08:38:27.020Z,2.88
2023-03-05T08:43:31.165Z,3.14
2023-03-05T08:48:34.777Z,3.27
2023-03-05T08:53:37.628Z,3.27
2023-03-05T08:58:40.599Z,3.45
2023-03-05T09:03:46.454Z,3.43
2023-03-05T09:08:49.268Z,3.37
2023-03-05T09:13:52.152Z,3.07
2023-03-05T09:18:57.662Z,2.69
2023-03-05T09:24:00.833Z,2.46
2023-03-05T09:29:03.698Z,2.36
2023-03-05T09:34:09.641Z,2.41
2023-03-05T09:39:12.507Z,2.34
2023-03-05T09:44:47.409Z,2.34
2023-03-05T09:50:04.096Z,2.32
2023-03-05T09:55:41.131Z,2.32
2023-03-05T10:00:47.930Z,2.31
2023-03-05T10:06:09.770Z,2.21
2023-03-05T10:11:33.165Z,2.16
2023-03-05T10:17:01.987Z,1.98
2023-03-05T10:22:24.279Z,1.85
2023-03-05T10:27:33.344Z,1.93
2023-03-05T10:32:57.127Z,2.38
2023-03-05T10:38:11.838Z,2.83
2023-03-05T10:43:21.695Z,3.18
2023-03-05T10:48:33.241Z,3.04
2023-03-05T10:53:48.105Z,2.71
2023-03-05T10:58:52.951Z,2.35
2023-03-05T11:04:08.024Z,2.08
2023-03-05T11:09:24.708Z,1.90
2023-03-05T11:14:33.704Z,1.95
2023-03-05T11:19:39.697Z,2.37
2023-03-05T11:24:46.749Z,2.90
2023-03-05T11:29:50.066Z,3.36
2023-03-05T11:34:54.059Z,3.64
2023-03-05T11:40:25.237Z,3.67
2023-03-05T11:45:31.726Z,3.29
2023-03-05T11:50:36.105Z,2.95
2023-03-05T11:55:49.145Z,2.91
2023-03-05T12:00:52.414Z,2.83
2023-03-05T12:06:10.211Z,2.45
2023-03-05T12:11:34.022Z,1.65
2023-03-05T12:17:04.633Z,1.06
2023-03-05T12:22:32.126Z,0.82
2023-03-05T12:27:37.592Z,0.65
2023-03-05T12:32:43.706Z,0.57
2023-03-05T12:37:49.296Z,0.87
2023-03-05T12:43:05.540Z,1.52
2023-03-05T12:48:14.259Z,2.12
2023-03-05T12:53:20.745Z,2.18
2023-03-05T12:59:00.953Z,2.14
2023-03-05T13:04:12.017Z,2.19
2023-03-05T13:09:24.376Z,2.18
2023-03-05T13:14:34.856Z,2.09
2023-03-05T13:19:41.791Z,2.10
2023-03-05T13:24:47.075Z,2.02
2023-03-05T13:29:53.035Z,1.94
2023-03-05T13:35:01.754Z,1.90
2023-03-05T13:40:27.683Z,1.93
2023-03-05T13:45:32.112Z,2.11
2023-03-05T13:50:37.918Z,2.22
2023-03-05T13:55:41.743Z,2.27
2023-03-05T14:00:44.819Z,2.29
2023-03-05T14:05:50.312Z,2.13
2023-03-05T14:10:57.222Z,1.91
2023-03-05T14:16:09.149Z,1.79
2023-03-05T14:21:13.301Z,1.76
2023-03-05T14:26:19.702Z,1.80
2023-03-05T14:31:26.210Z,1.88
2023-03-05T14:36:31.553Z,1.89
2023-03-05T14:41:41.609Z,1.82
2023-03-05T14:46:50.237Z,1.78
2023-03-05T14:51:53.087Z,1.70
2023-03-05T14:56:55.886Z,1.54
2023-03-05T15:02:00.136Z,1.33
2023-03-05T15:07:02.972Z,1.13
2023-03-05T15:12:05.961Z,0.99
2023-03-05T15:17:22.091Z,0.98
2023-03-05T15:22:24.957Z,0.97
2023-03-05T15:27:29.033Z,0.97
2023-03-05T15:32:32.091Z,0.96
2023-03-05T15:37:35.278Z,0.95
2023-03-05T15:42:38.252Z,0.90
2023-03-05T15:47:41.261Z,0.84
2023-03-05T15:52:44.164Z,0.74
2023-03-05T15:57:50.127Z,0.55
2023-03-05T16:02:53.458Z,0.36
2023-03-05T16:07:56.659Z,0.15
2023-03-05T16:13:06.887Z,-0.06
2023-03-05T16:18:14.133Z,-0.24
2023-03-05T16:23:16.993Z,-0.41
2023-03-05T16:28:19.889Z,-0.59
2023-03-05T16:33:23.532Z,-0.75
2023-03-05T16:38:26.574Z,-0.85
2023-03-05T16:43:29.647Z,-0.90
2023-03-05T16:48:32.508Z,-0.91
2023-03-05T16:53:38.445Z,-0.95
2023-03-05T16:58:42.525Z,-1.03
2023-03-05T17:03:47.028Z,-1.14
2023-03-05T17:08:51.290Z,-1.25
2023-03-05T17:13:54.176Z,-1.33
2023-03-05T17:18:57.577Z,-1.38
2023-03-05T17:24:00.451Z,-1.43
2023-03-05T17:29:06.996Z,-1.50
2023-03-05T17:34:10.302Z,-1.59
2023-03-05T17:39:14.041Z,-1.63
2023-03-05T17:44:16.861Z,-1.68
2023-03-05T17:49:19.753Z,-1.73
2023-03-05T17:54:23.481Z,-1.81
2023-03-05T17:59:26.853Z,-1.85
2023-03-05T18:04:29.798Z,-1.85
2023-03-05T18:09:32.842Z,-1.88
2023-03-05T18:14:35.946Z,-1.93
2023-03-05T18:19:38.734Z,-1.97
2023-03-05T18:24:41.629Z,-2.01
2023-03-05T18:29:44.497Z,-2.05
2023-03-05T18:34:49.581Z,-2.10
2023-03-05T18:39:53.391Z,-2.18
2023-03-05T18:44:57.090Z,-2.22
2023-03-05T18:50:00.044Z,-2.24
2023-03-05T18:55:03.000Z,-2.27
2023-03-05T19:00:06.875Z,-2.31
2023-03-05T19:05:10.508Z,-2.36
2023-03-05T19:10:15.359Z,-2.37
2023-03-05T19:15:18.267Z,-2.38
2023-03-05T19:20:22.013Z,-2.42
2023-03-05T19:25:27.268Z,-2.44
2023-03-05T19:30:31.154Z,-2.45
2023-03-05T19:35:34.049Z,-2.48
2023-03-05T19:40:41.558Z,-2.50
2023-03-05T19:45:44.559Z,-2.52
2023-03-05T19:50:47.405Z,-2.55
2023-03-05T19:55:52.118Z,-2.61
2023-03-05T20:00:55.312Z,-2.68
2023-03-05T20:05:58.188Z,-2.69
2023-03-05T20:11:01.997Z,-2.69
2023-03-05T20:16:06.201Z,-2.71
2023-03-05T20:21:09.107Z,-2.75
2023-03-05T20:26:11.987Z,-2.79
2023-03-05T20:31:19.309Z,-2.80
2023-03-05T20:36:23.676Z,-2.82
2023-03-05T20:41:26.624Z,-2.86
2023-03-05T20:47:02.734Z,-2.90
2023-03-05T20:52:05.669Z,-2.92
2023-03-05T20:57:08.522Z,-2.95
2023-03-05T21:02:11.323Z,-3.00
2023-03-05T21:07:14.418Z,-3.03
2023-03-05T21:12:17.656Z,-3.05
2023-03-05T21:17:20.528Z,-3.08
2023-03-05T21:22:23.509Z,-3.12
2023-03-05T21:27:26.716Z,-3.15
2023-03-05T21:32:29.671Z,-3.15
2023-03-05T21:37:32.847Z,-3.16
2023-03-05T21:42:37.496Z,-3.22
2023-03-05T21:47:41.008Z,-3.22
2023-03-05T21:52:43.919Z,-3.18
2023-03-05T21:57:47.067Z,-3.14
2023-03-05T22:02:49.970Z,-3.14
2023-03-05T22:07:53.938Z,-3.16
2023-03-05T22:13:09.599Z,-3.15
2023-03-05T22:18:14.957Z,-3.12
2023-03-05T22:23:19.712Z,-3.09
2023-03-05T22:28:22.636Z,-3.05
2023-03-05T22:33:27.284Z,-3.01
2023-03-05T22:38:30.054Z,-3.00
2023-03-05T22:43:32.882Z,-3.03
2023-03-05T22:48:35.941Z,-3.06
2023-03-05T22:53:39.513Z,-3.05
2023-03-05T22:58:42.722Z,-3.04
2023-03-05T23:03:46.015Z,-3.08
2023-03-05T23:08:50.038Z,-3.15
2023-03-05T23:13:53.020Z,-3.19
2023-03-05T23:18:56.260Z,-3.22
2023-03-05T23:23:59.061Z,-3.22
2023-03-05T23:29:01.844Z,-3.25
2023-03-05T23:34:04.673Z,-3.33
2023-03-05T23:39:07.536Z,-3.38
2023-03-05T23:44:10.340Z,-3.42
2023-03-05T23:49:13.195Z,-3.45
2023-03-05T23:54:16.036Z,-3.51
2023-03-05T23:59:19.066Z,-3.56
